KRNT - Renton
Updated: Thu, 18-Apr-2019 4:53am PDT

 Wind from S
Wind: S 3 mph , 6 km/h
Temperature: 55°F , 13°C
Dew Point: 46°F , 8°C
Humidity: 72%
Barometer: 30.25 inHg , 1024.4 hPa
Visibility: 10 miles , 16 km
Cloud details: 6500 ft
2019/04/18 11:53 KRNT 181153Z AUTO 19003KT 10SM OVC065 13/08 A3025 RMK AO2 SLP248 T01280083 10144 20122 56014 $
KBFI - Seattle-Boeing
Updated: Thu, 18-Apr-2019 4:53am PDT

 Wind from calm
Wind: Calm
Temperature: 55°F , 13°C
Dew Point: 46°F , 8°C
Humidity: 72%
Barometer: 30.25 inHg , 1024.4 hPa
Visibility: 10 miles , 16 km
Cloud details: 7000 ft
2019/04/18 11:53 KBFI 181153Z 00000KT 10SM OVC070 13/08 A3025 RMK AO2 SLP244 T01280083 10139 20122 56014
 
KSEA - Seattle
Updated: Thu, 18-Apr-2019 4:53am PDT

 Wind from calm
Wind: Calm
Temperature: 54°F , 12°C
Dew Point: 46°F , 8°C
Humidity: 77%
Barometer: 30.25 inHg , 1024.4 hPa
Visibility: 10 miles , 16 km
Cloud details: 6000 ft
2019/04/18 11:53 KSEA 181153Z 00000KT 10SM OVC060 12/08 A3025 RMK AO2 SLP250 T01220078 10128 20117 56014
KSMP - Stampede Pass
Updated: Thu, 18-Apr-2019 4:56am PDT

 Wind from calm
Wind: Calm
Temperature: 45°F , 7°C
Dew Point: 30°F , -1°C
Humidity: 57%
Barometer: 30.25 inHg , 1024.4 hPa
Visibility: 10 miles , 16 km
Cloud details: 3900 ft
2019/04/18 11:56 KSMP 181156Z AUTO 00000KT 10SM OVC039 07/M01 A3025 RMK AO2 SLP243 70027 T00721006 10072 20033 56009